sensor_id;sensor_type;location;lat;lon;timestamp;P1;durP1;ratioP1;P2;durP2;ratioP2
52126;SDS011;38120;53.176;6.614;2023-02-12T00:01:13;15.98;;;8.70;;
52126;SDS011;38120;53.176;6.614;2023-02-12T00:03:39;17.88;;;8.10;;
52126;SDS011;38120;53.176;6.614;2023-02-12T00:06:06;20.63;;;8.77;;
52126;SDS011;38120;53.176;6.614;2023-02-12T00:08:33;15.18;;;8.40;;
52126;SDS011;38120;53.176;6.614;2023-02-12T00:10:59;23.35;;;10.60;;
52126;SDS011;38120;53.176;6.614;2023-02-12T00:13:30;26.50;;;9.65;;
52126;SDS011;38120;53.176;6.614;2023-02-12T00:15:56;19.57;;;9.73;;
52126;SDS011;38120;53.176;6.614;2023-02-12T00:18:21;29.03;;;10.70;;
52126;SDS011;38120;53.176;6.614;2023-02-12T00:20:47;20.80;;;10.93;;
52126;SDS011;38120;53.176;6.614;2023-02-12T00:23:13;22.15;;;11.18;;
52126;SDS011;38120;53.176;6.614;2023-02-12T00:25:39;37.22;;;11.13;;
52126;SDS011;38120;53.176;6.614;2023-02-12T00:28:06;21.88;;;11.02;;
52126;SDS011;38120;53.176;6.614;2023-02-12T00:30:32;23.13;;;11.30;;
52126;SDS011;38120;53.176;6.614;2023-02-12T00:32:57;27.37;;;11.97;;
52126;SDS011;38120;53.176;6.614;2023-02-12T00:35:32;22.85;;;10.23;;
52126;SDS011;38120;53.176;6.614;2023-02-12T00:37:57;24.23;;;10.82;;
52126;SDS011;38120;53.176;6.614;2023-02-12T00:40:23;25.93;;;11.67;;
52126;SDS011;38120;53.176;6.614;2023-02-12T00:42:49;22.95;;;10.43;;
52126;SDS011;38120;53.176;6.614;2023-02-12T00:45:15;31.80;;;12.50;;
52126;SDS011;38120;53.176;6.614;2023-02-12T00:47:41;19.40;;;9.60;;
52126;SDS011;38120;53.176;6.614;2023-02-12T00:50:19;18.35;;;10.05;;
52126;SDS011;38120;53.176;6.614;2023-02-12T00:52:45;25.00;;;10.57;;
52126;SDS011;38120;53.176;6.614;2023-02-12T00:55:10;16.87;;;9.67;;
52126;SDS011;38120;53.176;6.614;2023-02-12T00:57:36;23.43;;;11.37;;
52126;SDS011;38120;53.176;6.614;2023-02-12T01:00:02;27.33;;;10.23;;
52126;SDS011;38120;53.176;6.614;2023-02-12T01:02:28;30.88;;;12.63;;
52126;SDS011;38120;53.176;6.614;2023-02-12T01:04:54;27.10;;;10.67;;
52126;SDS011;38120;53.176;6.614;2023-02-12T01:07:20;22.47;;;11.40;;
52126;SDS011;38120;53.176;6.614;2023-02-12T01:09:46;28.70;;;12.57;;
52126;SDS011;38120;53.176;6.614;2023-02-12T01:12:11;24.47;;;11.07;;
52126;SDS011;38120;53.176;6.614;2023-02-12T01:14:37;21.40;;;10.57;;
52126;SDS011;38120;53.176;6.614;2023-02-12T01:17:03;17.83;;;9.77;;
52126;SDS011;38120;53.176;6.614;2023-02-12T01:19:28;21.40;;;10.87;;
52126;SDS011;38120;53.176;6.614;2023-02-12T01:21:54;34.07;;;10.97;;
52126;SDS011;38120;53.176;6.614;2023-02-12T01:24:20;24.27;;;11.37;;
52126;SDS011;38120;53.176;6.614;2023-02-12T01:26:45;20.97;;;9.97;;
52126;SDS011;38120;53.176;6.614;2023-02-12T01:29:11;24.20;;;11.00;;
52126;SDS011;38120;53.176;6.614;2023-02-12T01:31:37;21.07;;;12.57;;
52126;SDS011;38120;53.176;6.614;2023-02-12T01:34:04;26.17;;;11.38;;
52126;SDS011;38120;53.176;6.614;2023-02-12T01:36:31;24.42;;;10.80;;
52126;SDS011;38120;53.176;6.614;2023-02-12T01:38:59;20.77;;;12.52;;
52126;SDS011;38120;53.176;6.614;2023-02-12T01:41:28;22.90;;;11.63;;
52126;SDS011;38120;53.176;6.614;2023-02-12T01:46:30;30.50;;;11.50;;
52126;SDS011;38120;53.176;6.614;2023-02-12T01:48:56;30.47;;;12.60;;
52126;SDS011;38120;53.176;6.614;2023-02-12T01:51:22;27.48;;;12.50;;
52126;SDS011;38120;53.176;6.614;2023-02-12T01:53:50;33.47;;;13.85;;
52126;SDS011;38120;53.176;6.614;2023-02-12T01:56:20;31.05;;;12.32;;
52126;SDS011;38120;53.176;6.614;2023-02-12T01:58:47;32.97;;;14.00;;
52126;SDS011;38120;53.176;6.614;2023-02-12T02:01:17;30.40;;;14.05;;
52126;SDS011;38120;53.176;6.614;2023-02-12T02:03:46;35.25;;;14.43;;
52126;SDS011;38120;53.176;6.614;2023-02-12T02:06:18;37.78;;;13.95;;
52126;SDS011;38120;53.176;6.614;2023-02-12T02:08:46;42.50;;;15.45;;
52126;SDS011;38120;53.176;6.614;2023-02-12T02:11:13;46.70;;;15.43;;
52126;SDS011;38120;53.176;6.614;2023-02-12T02:13:57;45.58;;;15.60;;
52126;SDS011;38120;53.176;6.614;2023-02-12T02:16:43;43.22;;;16.42;;
52126;SDS011;38120;53.176;6.614;2023-02-12T02:22:01;79.30;;;19.40;;
52126;SDS011;38120;53.176;6.614;2023-02-12T02:30:44;34.83;;;15.45;;
52126;SDS011;38120;53.176;6.614;2023-02-12T02:36:09;35.22;;;15.52;;
52126;SDS011;38120;53.176;6.614;2023-02-12T02:39:02;34.97;;;17.33;;
52126;SDS011;38120;53.176;6.614;2023-02-12T02:41:37;35.38;;;16.55;;
52126;SDS011;38120;53.176;6.614;2023-02-12T02:44:21;39.53;;;18.92;;
52126;SDS011;38120;53.176;6.614;2023-02-12T02:46:52;43.38;;;17.42;;
52126;SDS011;38120;53.176;6.614;2023-02-12T02:49:29;32.55;;;16.38;;
52126;SDS011;38120;53.176;6.614;2023-02-12T02:52:04;42.95;;;17.88;;
52126;SDS011;38120;53.176;6.614;2023-02-12T02:54:39;51.78;;;20.13;;
52126;SDS011;38120;53.176;6.614;2023-02-12T02:57:17;40.75;;;18.83;;
52126;SDS011;38120;53.176;6.614;2023-02-12T02:59:51;47.13;;;19.25;;
52126;SDS011;38120;53.176;6.614;2023-02-12T03:02:32;42.03;;;20.70;;
52126;SDS011;38120;53.176;6.614;2023-02-12T03:05:07;38.97;;;18.42;;
52126;SDS011;38120;53.176;6.614;2023-02-12T03:07:49;33.55;;;15.77;;
52126;SDS011;38120;53.176;6.614;2023-02-12T03:10:24;39.75;;;16.45;;
52126;SDS011;38120;53.176;6.614;2023-02-12T03:15:58;48.67;;;19.23;;
52126;SDS011;38120;53.176;6.614;2023-02-12T03:18:33;43.90;;;19.35;;
52126;SDS011;38120;53.176;6.614;2023-02-12T03:21:07;37.40;;;16.93;;
52126;SDS011;38120;53.176;6.614;2023-02-12T03:26:19;48.03;;;19.02;;
52126;SDS011;38120;53.176;6.614;2023-02-12T03:28:49;50.85;;;17.40;;
52126;SDS011;38120;53.176;6.614;2023-02-12T03:42:00;41.38;;;19.42;;
52126;SDS011;38120;53.176;6.614;2023-02-12T03:50:02;52.58;;;19.10;;
52126;SDS011;38120;53.176;6.614;2023-02-12T03:52:39;45.47;;;16.15;;
52126;SDS011;38120;53.176;6.614;2023-02-12T03:55:06;49.80;;;18.70;;
52126;SDS011;38120;53.176;6.614;2023-02-12T03:57:33;44.88;;;18.27;;
52126;SDS011;38120;53.176;6.614;2023-02-12T04:00:09;50.30;;;17.63;;
52126;SDS011;38120;53.176;6.614;2023-02-12T04:02:38;36.67;;;16.67;;
52126;SDS011;38120;53.176;6.614;2023-02-12T04:05:07;63.88;;;21.10;;
52126;SDS011;38120;53.176;6.614;2023-02-12T04:07:40;33.97;;;17.30;;
52126;SDS011;38120;53.176;6.614;2023-02-12T04:10:06;47.77;;;18.90;;
52126;SDS011;38120;53.176;6.614;2023-02-12T04:26:10;38.38;;;13.75;;
52126;SDS011;38120;53.176;6.614;2023-02-12T04:29:03;94.13;;;19.10;;
52126;SDS011;38120;53.176;6.614;2023-02-12T04:34:34;65.25;;;14.13;;
52126;SDS011;38120;53.176;6.614;2023-02-12T04:39:40;68.82;;;14.65;;
52126;SDS011;38120;53.176;6.614;2023-02-12T04:42:06;46.38;;;13.93;;
52126;SDS011;38120;53.176;6.614;2023-02-12T04:44:33;63.65;;;11.32;;
52126;SDS011;38120;53.176;6.614;2023-02-12T04:47:06;71.50;;;12.18;;
52126;SDS011;38120;53.176;6.614;2023-02-12T04:49:32;62.28;;;9.60;;
52126;SDS011;38120;53.176;6.614;2023-02-12T04:51:58;37.87;;;8.70;;
52126;SDS011;38120;53.176;6.614;2023-02-12T04:54:23;86.20;;;13.10;;
52126;SDS011;38120;53.176;6.614;2023-02-12T04:56:49;115.75;;;14.30;;
52126;SDS011;38120;53.176;6.614;2023-02-12T04:59:16;78.22;;;10.90;;
52126;SDS011;38120;53.176;6.614;2023-02-12T05:01:41;152.05;;;16.95;;
52126;SDS011;38120;53.176;6.614;2023-02-12T05:04:09;180.95;;;17.83;;
52126;SDS011;38120;53.176;6.614;2023-02-12T05:06:37;98.32;;;12.13;;
52126;SDS011;38120;53.176;6.614;2023-02-12T05:09:04;161.95;;;18.63;;
52126;SDS011;38120;53.176;6.614;2023-02-12T05:11:30;123.95;;;13.27;;
52126;SDS011;38120;53.176;6.614;2023-02-12T05:13:56;195.02;;;17.63;;
52126;SDS011;38120;53.176;6.614;2023-02-12T05:16:22;109.10;;;13.77;;
52126;SDS011;38120;53.176;6.614;2023-02-12T05:18:48;176.80;;;15.67;;
52126;SDS011;38120;53.176;6.614;2023-02-12T05:21:14;217.57;;;20.67;;
52126;SDS011;38120;53.176;6.614;2023-02-12T05:23:40;183.23;;;15.80;;
52126;SDS011;38120;53.176;6.614;2023-02-12T05:26:11;142.77;;;13.18;;
52126;SDS011;38120;53.176;6.614;2023-02-12T05:28:47;132.65;;;15.45;;
52126;SDS011;38120;53.176;6.614;2023-02-12T05:31:14;97.63;;;12.10;;
52126;SDS011;38120;53.176;6.614;2023-02-12T05:33:42;150.32;;;16.52;;
52126;SDS011;38120;53.176;6.614;2023-02-12T05:36:10;60.08;;;11.32;;
52126;SDS011;38120;53.176;6.614;2023-02-12T05:38:37;94.47;;;12.95;;
52126;SDS011;38120;53.176;6.614;2023-02-12T05:41:07;75.80;;;13.53;;
52126;SDS011;38120;53.176;6.614;2023-02-12T05:43:46;50.25;;;9.52;;
52126;SDS011;38120;53.176;6.614;2023-02-12T05:46:12;76.82;;;11.32;;
52126;SDS011;38120;53.176;6.614;2023-02-12T05:48:38;35.05;;;8.25;;
52126;SDS011;38120;53.176;6.614;2023-02-12T05:51:05;76.18;;;11.98;;
52126;SDS011;38120;53.176;6.614;2023-02-12T05:53:36;31.77;;;8.85;;
52126;SDS011;38120;53.176;6.614;2023-02-12T05:58:35;28.52;;;9.02;;
52126;SDS011;38120;53.176;6.614;2023-02-12T06:01:01;43.60;;;9.05;;
52126;SDS011;38120;53.176;6.614;2023-02-12T06:03:27;69.33;;;11.47;;
52126;SDS011;38120;53.176;6.614;2023-02-12T06:05:53;32.17;;;8.73;;
52126;SDS011;38120;53.176;6.614;2023-02-12T06:08:18;30.60;;;8.27;;
52126;SDS011;38120;53.176;6.614;2023-02-12T06:10:44;55.87;;;11.00;;
52126;SDS011;38120;53.176;6.614;2023-02-12T06:13:10;78.23;;;13.50;;
52126;SDS011;38120;53.176;6.614;2023-02-12T06:15:35;53.77;;;10.80;;
52126;SDS011;38120;53.176;6.614;2023-02-12T06:18:01;49.63;;;10.15;;
52126;SDS011;38120;53.176;6.614;2023-02-12T06:20:27;25.27;;;9.00;;
52126;SDS011;38120;53.176;6.614;2023-02-12T06:22:53;79.50;;;13.27;;
52126;SDS011;38120;53.176;6.614;2023-02-12T06:25:19;89.77;;;12.47;;
52126;SDS011;38120;53.176;6.614;2023-02-12T06:27:44;32.63;;;9.02;;
52126;SDS011;38120;53.176;6.614;2023-02-12T06:30:10;92.30;;;15.93;;
52126;SDS011;38120;53.176;6.614;2023-02-12T06:32:36;37.92;;;11.20;;
52126;SDS011;38120;53.176;6.614;2023-02-12T06:35:02;38.00;;;10.90;;
52126;SDS011;38120;53.176;6.614;2023-02-12T06:37:29;60.45;;;18.02;;
52126;SDS011;38120;53.176;6.614;2023-02-12T06:39:54;43.03;;;10.80;;
52126;SDS011;38120;53.176;6.614;2023-02-12T06:42:20;57.57;;;14.23;;
52126;SDS011;38120;53.176;6.614;2023-02-12T06:44:46;47.93;;;12.30;;
52126;SDS011;38120;53.176;6.614;2023-02-12T06:47:11;82.37;;;14.53;;
52126;SDS011;38120;53.176;6.614;2023-02-12T06:49:38;81.03;;;16.42;;
52126;SDS011;38120;53.176;6.614;2023-02-12T06:52:03;70.53;;;14.67;;
52126;SDS011;38120;53.176;6.614;2023-02-12T06:54:29;92.47;;;15.13;;
52126;SDS011;38120;53.176;6.614;2023-02-12T06:56:55;64.17;;;18.23;;
52126;SDS011;38120;53.176;6.614;2023-02-12T06:59:20;66.30;;;16.17;;
52126;SDS011;38120;53.176;6.614;2023-02-12T07:01:46;52.60;;;16.87;;
52126;SDS011;38120;53.176;6.614;2023-02-12T07:04:12;71.53;;;20.57;;
52126;SDS011;38120;53.176;6.614;2023-02-12T07:06:37;31.63;;;14.55;;
52126;SDS011;38120;53.176;6.614;2023-02-12T07:09:04;46.10;;;14.95;;
52126;SDS011;38120;53.176;6.614;2023-02-12T07:11:31;73.55;;;19.02;;
52126;SDS011;38120;53.176;6.614;2023-02-12T07:13:58;25.10;;;11.80;;
52126;SDS011;38120;53.176;6.614;2023-02-12T07:16:24;37.92;;;15.18;;
52126;SDS011;38120;53.176;6.614;2023-02-12T07:18:50;30.80;;;15.15;;
52126;SDS011;38120;53.176;6.614;2023-02-12T07:21:16;30.88;;;16.05;;
52126;SDS011;38120;53.176;6.614;2023-02-12T07:23:46;27.35;;;14.60;;
52126;SDS011;38120;53.176;6.614;2023-02-12T07:26:13;25.98;;;15.13;;
52126;SDS011;38120;53.176;6.614;2023-02-12T07:28:40;31.17;;;16.75;;
52126;SDS011;38120;53.176;6.614;2023-02-12T07:33:35;34.75;;;15.27;;
52126;SDS011;38120;53.176;6.614;2023-02-12T07:36:06;29.88;;;14.63;;
52126;SDS011;38120;53.176;6.614;2023-02-12T07:38:36;30.20;;;16.50;;
52126;SDS011;38120;53.176;6.614;2023-02-12T07:41:09;28.80;;;15.57;;
52126;SDS011;38120;53.176;6.614;2023-02-12T07:43:37;27.00;;;14.75;;
52126;SDS011;38120;53.176;6.614;2023-02-12T07:48:37;30.50;;;16.45;;
52126;SDS011;38120;53.176;6.614;2023-02-12T07:51:05;28.65;;;15.15;;
52126;SDS011;38120;53.176;6.614;2023-02-12T07:53:32;28.73;;;14.68;;
52126;SDS011;38120;53.176;6.614;2023-02-12T07:56:11;24.65;;;14.77;;
52126;SDS011;38120;53.176;6.614;2023-02-12T07:58:38;29.67;;;13.40;;
52126;SDS011;38120;53.176;6.614;2023-02-12T08:01:18;23.27;;;13.75;;
52126;SDS011;38120;53.176;6.614;2023-02-12T08:03:46;23.02;;;12.35;;
52126;SDS011;38120;53.176;6.614;2023-02-12T08:06:18;22.50;;;12.07;;
52126;SDS011;38120;53.176;6.614;2023-02-12T08:08:45;19.35;;;10.57;;
52126;SDS011;38120;53.176;6.614;2023-02-12T08:11:14;14.75;;;9.15;;
52126;SDS011;38120;53.176;6.614;2023-02-12T08:13:40;18.50;;;10.65;;
52126;SDS011;38120;53.176;6.614;2023-02-12T08:16:08;18.27;;;9.43;;
52126;SDS011;38120;53.176;6.614;2023-02-12T08:18:36;16.15;;;10.10;;
52126;SDS011;38120;53.176;6.614;2023-02-12T08:21:03;16.33;;;9.15;;
52126;SDS011;38120;53.176;6.614;2023-02-12T08:23:32;19.63;;;9.80;;
52126;SDS011;38120;53.176;6.614;2023-02-12T08:28:46;19.08;;;9.48;;
52126;SDS011;38120;53.176;6.614;2023-02-12T08:31:17;16.23;;;10.02;;
52126;SDS011;38120;53.176;6.614;2023-02-12T08:33:45;19.40;;;9.63;;
52126;SDS011;38120;53.176;6.614;2023-02-12T08:36:20;17.00;;;8.98;;
52126;SDS011;38120;53.176;6.614;2023-02-12T08:38:56;19.70;;;10.60;;
52126;SDS011;38120;53.176;6.614;2023-02-12T08:41:24;18.95;;;9.68;;
52126;SDS011;38120;53.176;6.614;2023-02-12T08:43:53;17.02;;;9.43;;
52126;SDS011;38120;53.176;6.614;2023-02-12T08:46:24;22.70;;;10.80;;
52126;SDS011;38120;53.176;6.614;2023-02-12T08:48:58;21.60;;;10.52;;
52126;SDS011;38120;53.176;6.614;2023-02-12T08:51:29;19.70;;;10.88;;
52126;SDS011;38120;53.176;6.614;2023-02-12T08:53:58;19.33;;;11.20;;
52126;SDS011;38120;53.176;6.614;2023-02-12T08:56:25;25.02;;;12.70;;
52126;SDS011;38120;53.176;6.614;2023-02-12T08:58:54;22.65;;;13.25;;
52126;SDS011;38120;53.176;6.614;2023-02-12T09:01:21;26.42;;;14.55;;
52126;SDS011;38120;53.176;6.614;2023-02-12T09:03:48;24.05;;;14.15;;
52126;SDS011;38120;53.176;6.614;2023-02-12T09:06:15;27.50;;;13.77;;
52126;SDS011;38120;53.176;6.614;2023-02-12T09:08:42;27.58;;;15.15;;
52126;SDS011;38120;53.176;6.614;2023-02-12T09:11:12;29.00;;;14.32;;
52126;SDS011;38120;53.176;6.614;2023-02-12T09:13:55;30.75;;;14.65;;
52126;SDS011;38120;53.176;6.614;2023-02-12T09:16:27;23.77;;;14.30;;
52126;SDS011;38120;53.176;6.614;2023-02-12T09:18:55;30.38;;;15.35;;
52126;SDS011;38120;53.176;6.614;2023-02-12T09:21:25;23.77;;;15.57;;
52126;SDS011;38120;53.176;6.614;2023-02-12T09:23:54;30.15;;;15.70;;
52126;SDS011;38120;53.176;6.614;2023-02-12T09:26:25;30.45;;;16.35;;
52126;SDS011;38120;53.176;6.614;2023-02-12T09:28:51;24.20;;;14.67;;
52126;SDS011;38120;53.176;6.614;2023-02-12T09:31:22;25.38;;;14.32;;
52126;SDS011;38120;53.176;6.614;2023-02-12T09:33:50;34.10;;;15.90;;
52126;SDS011;38120;53.176;6.614;2023-02-12T09:36:17;26.17;;;14.77;;
52126;SDS011;38120;53.176;6.614;2023-02-12T09:38:43;25.83;;;15.30;;
52126;SDS011;38120;53.176;6.614;2023-02-12T09:43:50;26.95;;;15.32;;
52126;SDS011;38120;53.176;6.614;2023-02-12T09:46:20;31.92;;;15.75;;
52126;SDS011;38120;53.176;6.614;2023-02-12T09:51:43;29.60;;;16.73;;
52126;SDS011;38120;53.176;6.614;2023-02-12T09:54:16;25.50;;;12.27;;
52126;SDS011;38120;53.176;6.614;2023-02-12T09:56:52;31.13;;;15.23;;
52126;SDS011;38120;53.176;6.614;2023-02-12T09:59:40;32.70;;;14.60;;
52126;SDS011;38120;53.176;6.614;2023-02-12T10:02:13;28.02;;;16.30;;
52126;SDS011;38120;53.176;6.614;2023-02-12T10:04:44;27.92;;;16.17;;
52126;SDS011;38120;53.176;6.614;2023-02-12T10:15:14;26.50;;;14.77;;
52126;SDS011;38120;53.176;6.614;2023-02-12T10:23:24;28.35;;;14.77;;
52126;SDS011;38120;53.176;6.614;2023-02-12T10:25:57;30.80;;;16.00;;
52126;SDS011;38120;53.176;6.614;2023-02-12T10:28:43;25.88;;;15.52;;
52126;SDS011;38120;53.176;6.614;2023-02-12T10:33:45;26.90;;;14.68;;
52126;SDS011;38120;53.176;6.614;2023-02-12T10:39:12;29.40;;;15.48;;
52126;SDS011;38120;53.176;6.614;2023-02-12T10:41:59;26.10;;;15.43;;
52126;SDS011;38120;53.176;6.614;2023-02-12T10:44:32;28.92;;;16.25;;
52126;SDS011;38120;53.176;6.614;2023-02-12T10:46:57;23.60;;;13.00;;
52126;SDS011;38120;53.176;6.614;2023-02-12T10:49:23;27.07;;;15.90;;
52126;SDS011;38120;53.176;6.614;2023-02-12T10:54:56;27.90;;;15.50;;
52126;SDS011;38120;53.176;6.614;2023-02-12T10:59:53;25.45;;;15.63;;
52126;SDS011;38120;53.176;6.614;2023-02-12T11:04:47;21.23;;;14.43;;
52126;SDS011;38120;53.176;6.614;2023-02-12T11:09:40;28.55;;;14.73;;
52126;SDS011;38120;53.176;6.614;2023-02-12T11:14:51;21.40;;;13.90;;
52126;SDS011;38120;53.176;6.614;2023-02-12T11:17:25;25.70;;;14.90;;
52126;SDS011;38120;53.176;6.614;2023-02-12T11:22:51;27.65;;;14.38;;
52126;SDS011;38120;53.176;6.614;2023-02-12T11:25:19;24.15;;;14.45;;
52126;SDS011;38120;53.176;6.614;2023-02-12T11:30:23;20.55;;;11.50;;
52126;SDS011;38120;53.176;6.614;2023-02-12T11:32:54;22.50;;;11.90;;
52126;SDS011;38120;53.176;6.614;2023-02-12T11:35:47;23.15;;;12.05;;
52126;SDS011;38120;53.176;6.614;2023-02-12T11:38:23;17.55;;;11.40;;
52126;SDS011;38120;53.176;6.614;2023-02-12T11:41:08;20.08;;;11.65;;
52126;SDS011;38120;53.176;6.614;2023-02-12T11:43:48;20.27;;;11.88;;
52126;SDS011;38120;53.176;6.614;2023-02-12T11:46:18;19.67;;;11.07;;
52126;SDS011;38120;53.176;6.614;2023-02-12T11:48:47;18.33;;;10.60;;
52126;SDS011;38120;53.176;6.614;2023-02-12T11:51:26;19.17;;;11.75;;
52126;SDS011;38120;53.176;6.614;2023-02-12T11:54:00;15.43;;;9.88;;
52126;SDS011;38120;53.176;6.614;2023-02-12T11:56:39;19.35;;;11.02;;
52126;SDS011;38120;53.176;6.614;2023-02-12T11:59:34;16.58;;;10.57;;
52126;SDS011;38120;53.176;6.614;2023-02-12T12:02:03;16.27;;;9.60;;
52126;SDS011;38120;53.176;6.614;2023-02-12T12:04:41;19.13;;;10.32;;
52126;SDS011;38120;53.176;6.614;2023-02-12T12:07:21;18.33;;;10.48;;
52126;SDS011;38120;53.176;6.614;2023-02-12T12:09:54;15.45;;;9.23;;
52126;SDS011;38120;53.176;6.614;2023-02-12T12:12:40;16.10;;;10.13;;
52126;SDS011;38120;53.176;6.614;2023-02-12T12:18:14;12.82;;;7.97;;
52126;SDS011;38120;53.176;6.614;2023-02-12T12:21:12;14.90;;;8.75;;
52126;SDS011;38120;53.176;6.614;2023-02-12T12:26:34;16.95;;;9.65;;
52126;SDS011;38120;53.176;6.614;2023-02-12T12:29:04;19.63;;;7.45;;
52126;SDS011;38120;53.176;6.614;2023-02-12T12:31:57;9.25;;;4.75;;
52126;SDS011;38120;53.176;6.614;2023-02-12T12:34:26;9.95;;;3.95;;
52126;SDS011;38120;53.176;6.614;2023-02-12T12:47:31;5.30;;;2.47;;
52126;SDS011;38120;53.176;6.614;2023-02-12T13:00:39;1.42;;;0.40;;
52126;SDS011;38120;53.176;6.614;2023-02-12T13:13:47;2.95;;;0.45;;
52126;SDS011;38120;53.176;6.614;2023-02-12T13:16:29;2.28;;;0.70;;
52126;SDS011;38120;53.176;6.614;2023-02-12T13:19:22;1.50;;;0.80;;
52126;SDS011;38120;53.176;6.614;2023-02-12T13:24:39;7.25;;;2.67;;
52126;SDS011;38120;53.176;6.614;2023-02-12T13:27:14;6.90;;;2.85;;
52126;SDS011;38120;53.176;6.614;2023-02-12T13:29:48;8.68;;;3.20;;
52126;SDS011;38120;53.176;6.614;2023-02-12T13:32:23;7.72;;;2.88;;
52126;SDS011;38120;53.176;6.614;2023-02-12T13:34:53;6.57;;;3.40;;
52126;SDS011;38120;53.176;6.614;2023-02-12T13:37:34;6.70;;;3.03;;
52126;SDS011;38120;53.176;6.614;2023-02-12T13:40:14;7.78;;;3.28;;
52126;SDS011;38120;53.176;6.614;2023-02-12T13:48:18;5.20;;;2.70;;
52126;SDS011;38120;53.176;6.614;2023-02-12T13:51:49;5.03;;;2.00;;
52126;SDS011;38120;53.176;6.614;2023-02-12T13:54:04;5.55;;;2.08;;
52126;SDS011;38120;53.176;6.614;2023-02-12T14:04:46;4.75;;;2.10;;
52126;SDS011;38120;53.176;6.614;2023-02-12T14:10:23;4.30;;;2.00;;
52126;SDS011;38120;53.176;6.614;2023-02-12T14:12:51;5.03;;;2.28;;
52126;SDS011;38120;53.176;6.614;2023-02-12T14:23:40;3.88;;;1.58;;
52126;SDS011;38120;53.176;6.614;2023-02-12T14:26:07;3.30;;;1.75;;
52126;SDS011;38120;53.176;6.614;2023-02-12T14:33:50;1.77;;;0.82;;
52126;SDS011;38120;53.176;6.614;2023-02-12T14:41:49;8.05;;;3.78;;
52126;SDS011;38120;53.176;6.614;2023-02-12T14:46:43;7.97;;;3.70;;
52126;SDS011;38120;53.176;6.614;2023-02-12T14:49:20;11.45;;;4.75;;
52126;SDS011;38120;53.176;6.614;2023-02-12T15:02:41;9.93;;;3.88;;
52126;SDS011;38120;53.176;6.614;2023-02-12T15:05:18;7.25;;;3.85;;
52126;SDS011;38120;53.176;6.614;2023-02-12T15:08:04;8.18;;;4.55;;
52126;SDS011;38120;53.176;6.614;2023-02-12T15:10:38;8.77;;;4.57;;
52126;SDS011;38120;53.176;6.614;2023-02-12T15:18:49;11.00;;;5.45;;
52126;SDS011;38120;53.176;6.614;2023-02-12T15:21:24;12.23;;;5.38;;
52126;SDS011;38120;53.176;6.614;2023-02-12T15:26:27;13.82;;;7.75;;
52126;SDS011;38120;53.176;6.614;2023-02-12T15:28:56;14.07;;;8.27;;
52126;SDS011;38120;53.176;6.614;2023-02-12T15:31:24;14.25;;;9.70;;
52126;SDS011;38120;53.176;6.614;2023-02-12T15:33:54;17.25;;;8.38;;
52126;SDS011;38120;53.176;6.614;2023-02-12T15:36:22;13.07;;;7.60;;
52126;SDS011;38120;53.176;6.614;2023-02-12T15:38:52;16.83;;;9.32;;
52126;SDS011;38120;53.176;6.614;2023-02-12T15:41:37;17.13;;;9.35;;
52126;SDS011;38120;53.176;6.614;2023-02-12T15:49:31;12.82;;;7.40;;
52126;SDS011;38120;53.176;6.614;2023-02-12T15:51:59;11.55;;;6.57;;
52126;SDS011;38120;53.176;6.614;2023-02-12T15:54:42;10.23;;;6.03;;
52126;SDS011;38120;53.176;6.614;2023-02-12T15:57:10;13.57;;;7.03;;
52126;SDS011;38120;53.176;6.614;2023-02-12T15:59:38;11.32;;;6.88;;
52126;SDS011;38120;53.176;6.614;2023-02-12T16:02:24;11.00;;;6.65;;
52126;SDS011;38120;53.176;6.614;2023-02-12T16:04:53;11.57;;;6.70;;
52126;SDS011;38120;53.176;6.614;2023-02-12T16:07:20;10.52;;;6.32;;
52126;SDS011;38120;53.176;6.614;2023-02-12T16:09:47;15.55;;;7.40;;
52126;SDS011;38120;53.176;6.614;2023-02-12T16:12:16;11.13;;;6.82;;
52126;SDS011;38120;53.176;6.614;2023-02-12T16:14:47;12.30;;;7.50;;
52126;SDS011;38120;53.176;6.614;2023-02-12T16:19:53;11.88;;;7.57;;
52126;SDS011;38120;53.176;6.614;2023-02-12T16:22:37;12.20;;;6.80;;
52126;SDS011;38120;53.176;6.614;2023-02-12T16:25:13;11.48;;;6.72;;
52126;SDS011;38120;53.176;6.614;2023-02-12T16:27:56;11.13;;;6.75;;
52126;SDS011;38120;53.176;6.614;2023-02-12T16:32:57;11.43;;;5.57;;
52126;SDS011;38120;53.176;6.614;2023-02-12T16:37:52;11.10;;;4.68;;
52126;SDS011;38120;53.176;6.614;2023-02-12T16:40:32;10.43;;;5.80;;
52126;SDS011;38120;53.176;6.614;2023-02-12T16:43:01;13.32;;;6.38;;
52126;SDS011;38120;53.176;6.614;2023-02-12T16:45:32;11.20;;;6.35;;
52126;SDS011;38120;53.176;6.614;2023-02-12T16:48:13;11.40;;;5.93;;
52126;SDS011;38120;53.176;6.614;2023-02-12T16:50:43;9.95;;;5.32;;
52126;SDS011;38120;53.176;6.614;2023-02-12T16:53:22;12.13;;;6.32;;
52126;SDS011;38120;53.176;6.614;2023-02-12T16:55:54;10.30;;;6.15;;
52126;SDS011;38120;53.176;6.614;2023-02-12T16:58:20;11.88;;;6.78;;
52126;SDS011;38120;53.176;6.614;2023-02-12T17:00:46;13.70;;;6.60;;
52126;SDS011;38120;53.176;6.614;2023-02-12T17:05:39;10.73;;;5.57;;
52126;SDS011;38120;53.176;6.614;2023-02-12T17:08:11;12.45;;;6.63;;
52126;SDS011;38120;53.176;6.614;2023-02-12T17:10:38;11.82;;;5.90;;
52126;SDS011;38120;53.176;6.614;2023-02-12T17:13:04;13.82;;;7.40;;
52126;SDS011;38120;53.176;6.614;2023-02-12T17:15:36;9.73;;;7.10;;
52126;SDS011;38120;53.176;6.614;2023-02-12T17:18:07;12.17;;;7.37;;
52126;SDS011;38120;53.176;6.614;2023-02-12T17:20:35;10.02;;;6.00;;
52126;SDS011;38120;53.176;6.614;2023-02-12T17:25:38;12.18;;;6.63;;
52126;SDS011;38120;53.176;6.614;2023-02-12T17:28:04;12.50;;;6.93;;
52126;SDS011;38120;53.176;6.614;2023-02-12T17:30:29;10.13;;;5.88;;
52126;SDS011;38120;53.176;6.614;2023-02-12T17:32:56;10.20;;;6.55;;
52126;SDS011;38120;53.176;6.614;2023-02-12T17:35:22;9.23;;;6.03;;
52126;SDS011;38120;53.176;6.614;2023-02-12T17:37:48;9.63;;;5.60;;
52126;SDS011;38120;53.176;6.614;2023-02-12T17:40:14;8.67;;;4.83;;
52126;SDS011;38120;53.176;6.614;2023-02-12T17:42:40;9.52;;;5.75;;
52126;SDS011;38120;53.176;6.614;2023-02-12T17:45:06;10.90;;;5.47;;
52126;SDS011;38120;53.176;6.614;2023-02-12T17:47:32;8.68;;;4.97;;
52126;SDS011;38120;53.176;6.614;2023-02-12T17:50:04;10.90;;;6.32;;
52126;SDS011;38120;53.176;6.614;2023-02-12T17:52:37;10.15;;;6.10;;
52126;SDS011;38120;53.176;6.614;2023-02-12T17:55:03;7.50;;;4.97;;
52126;SDS011;38120;53.176;6.614;2023-02-12T17:57:30;9.10;;;5.40;;
52126;SDS011;38120;53.176;6.614;2023-02-12T17:59:56;10.48;;;5.10;;
52126;SDS011;38120;53.176;6.614;2023-02-12T18:02:22;10.90;;;5.65;;
52126;SDS011;38120;53.176;6.614;2023-02-12T18:04:48;8.33;;;5.77;;
52126;SDS011;38120;53.176;6.614;2023-02-12T18:07:13;8.73;;;5.40;;
52126;SDS011;38120;53.176;6.614;2023-02-12T18:09:39;11.70;;;5.97;;
52126;SDS011;38120;53.176;6.614;2023-02-12T18:12:11;11.43;;;5.65;;
52126;SDS011;38120;53.176;6.614;2023-02-12T18:14:36;8.80;;;5.20;;
52126;SDS011;38120;53.176;6.614;2023-02-12T18:17:02;8.68;;;4.80;;
52126;SDS011;38120;53.176;6.614;2023-02-12T18:19:28;8.73;;;5.57;;
52126;SDS011;38120;53.176;6.614;2023-02-12T18:21:55;9.25;;;4.85;;
52126;SDS011;38120;53.176;6.614;2023-02-12T18:24:21;10.70;;;5.38;;
52126;SDS011;38120;53.176;6.614;2023-02-12T18:26:46;10.37;;;6.20;;
52126;SDS011;38120;53.176;6.614;2023-02-12T18:29:12;8.05;;;5.05;;
52126;SDS011;38120;53.176;6.614;2023-02-12T18:31:38;6.80;;;4.50;;